Time,TemperatureF,DewpointF,PressureIn,WindDirection,WindDirectionDegrees,WindSpeedMPH,WindSpeedGustMPH,Humidity,HourlyPrecipIn,Conditions,Clouds,dailyrainin,SoftwareType,DateUTC
2013-03-28 00:13:00,30.9,24.6,30.02,WNW,292,5.3,-999.0,77,-99.99,,,0.00,Acu-Link.com,2013-03-28 04:13:00,
2013-03-28 00:29:00,30.7,24.0,30.01,West,270,4.7,-999.0,76,-99.99,,,0.00,Acu-Link.com,2013-03-28 04:29:00,
2013-03-28 00:44:00,30.2,23.9,30.01,WNW,292,5.8,-999.0,77,-99.99,,,0.00,Acu-Link.com,2013-03-28 04:44:00,
2013-03-28 00:59:00,29.8,23.8,30.01,West,270,7.3,-999.0,78,-99.99,,,0.00,Acu-Link.com,2013-03-28 04:59:00,
2013-03-28 01:14:00,29.8,23.8,30.00,West,270,4.7,-999.0,78,-99.99,,,0.00,Acu-Link.com,2013-03-28 05:14:00,
2013-03-28 01:29:00,29.8,24.1,30.01,West,270,6.3,-999.0,79,-99.99,,,0.00,Acu-Link.com,2013-03-28 05:29:00,
2013-03-28 01:44:00,29.8,24.4,30.01,West,270,3.7,-999.0,80,-99.99,,,0.00,Acu-Link.com,2013-03-28 05:44:00,
2013-03-28 01:59:00,29.8,25.0,30.01,WSW,247,4.7,-999.0,82,-99.99,,,0.00,Acu-Link.com,2013-03-28 05:59:00,
2013-03-28 02:14:00,29.8,25.0,30.01,SW,225,9.9,-999.0,82,-99.99,,,0.00,Acu-Link.com,2013-03-28 06:14:00,
2013-03-28 02:30:00,29.8,25.0,30.01,WSW,247,6.3,-999.0,82,-99.99,,,0.00,Acu-Link.com,2013-03-28 06:30:00,
2013-03-28 02:45:00,29.8,24.7,30.00,West,270,3.7,-999.0,81,-99.99,,,0.00,Acu-Link.com,2013-03-28 06:45:00,
2013-03-28 03:00:00,30.0,25.2,30.00,West,270,6.3,-999.0,82,-99.99,,,0.00,Acu-Link.com,2013-03-28 07:00:00,
2013-03-28 03:15:00,29.8,25.0,30.00,SW,225,9.9,-999.0,82,-99.99,,,0.00,Acu-Link.com,2013-03-28 07:15:00,
2013-03-28 03:30:00,29.7,25.5,29.99,West,270,9.9,-999.0,84,-99.99,,,0.00,Acu-Link.com,2013-03-28 07:30:00,
2013-03-28 03:45:00,29.5,25.6,29.99,WSW,247,9.9,-999.0,85,-99.99,,,0.00,Acu-Link.com,2013-03-28 07:45:00,
2013-03-28 04:00:00,29.1,25.7,30.00,WSW,247,6.8,-999.0,87,-99.99,,,0.00,Acu-Link.com,2013-03-28 08:00:00,
2013-03-28 04:16:00,29.1,26.0,30.00,WSW,247,5.3,-999.0,88,-99.99,,,0.00,Acu-Link.com,2013-03-28 08:16:00,
2013-03-28 05:01:00,29.3,25.6,30.00,SSW,202,7.8,-999.0,86,-99.99,,,0.00,Acu-Link.com,2013-03-28 09:01:00,
2013-03-28 05:16:00,29.7,25.2,30.00,SW,225,5.8,-999.0,83,-99.99,,,0.00,Acu-Link.com,2013-03-28 09:16:00,
2013-03-28 05:31:00,29.7,25.2,30.00,West,270,5.3,-999.0,83,-99.99,,,0.00,Acu-Link.com,2013-03-28 09:31:00,
2013-03-28 05:47:00,29.7,24.9,30.00,West,270,7.8,-999.0,82,-99.99,,,0.00,Acu-Link.com,2013-03-28 09:47:00,
2013-03-28 06:02:00,29.7,24.6,29.99,SW,225,5.3,-999.0,81,-99.99,,,0.00,Acu-Link.com,2013-03-28 10:02:00,
2013-03-28 06:17:00,29.7,24.3,30.00,West,270,8.9,-999.0,80,-99.99,,,0.00,Acu-Link.com,2013-03-28 10:17:00,
2013-03-28 06:32:00,29.7,24.6,30.00,West,270,9.4,-999.0,81,-99.99,,,0.00,Acu-Link.com,2013-03-28 10:32:00,
2013-03-28 06:47:00,29.7,24.0,30.00,West,270,10.4,-999.0,79,-99.99,,,0.00,Acu-Link.com,2013-03-28 10:47:00,
2013-03-28 07:03:00,29.8,22.5,30.00,West,270,11.9,-999.0,74,-99.99,,,0.00,Acu-Link.com,2013-03-28 11:03:00,
2013-03-28 07:18:00,29.8,21.9,30.01,West,270,10.9,-999.0,72,-99.99,,,0.00,Acu-Link.com,2013-03-28 11:18:00,
2013-03-28 07:33:00,29.8,22.2,30.01,WSW,247,8.3,-999.0,73,-99.99,,,0.00,Acu-Link.com,2013-03-28 11:33:00,
2013-03-28 07:48:00,29.8,21.6,30.02,West,270,9.4,-999.0,71,-99.99,,,0.00,Acu-Link.com,2013-03-28 11:48:00,
2013-03-28 08:03:00,30.0,21.1,30.02,SW,225,7.3,-999.0,69,-99.99,,,0.00,Acu-Link.com,2013-03-28 12:03:00,
2013-03-28 08:18:00,30.2,21.3,30.02,West,270,9.9,-999.0,69,-99.99,,,0.00,Acu-Link.com,2013-03-28 12:18:00,
2013-03-28 08:33:00,30.6,21.7,30.02,WSW,247,9.9,-999.0,69,-99.99,,,0.00,Acu-Link.com,2013-03-28 12:33:00,
2013-03-28 08:49:00,30.7,21.1,30.02,SSE,157,3.7,-999.0,67,-99.99,,,0.00,Acu-Link.com,2013-03-28 12:49:00,
2013-03-28 09:04:00,31.1,20.7,30.03,West,270,4.7,-999.0,65,-99.99,,,0.00,Acu-Link.com,2013-03-28 13:04:00,
2013-03-28 09:19:00,32.4,21.6,30.03,NNW,337,6.8,-999.0,64,-99.99,,,0.00,Acu-Link.com,2013-03-28 13:19:00,
2013-03-28 09:34:00,33.1,21.5,30.03,SW,225,5.8,-999.0,62,-99.99,,,0.00,Acu-Link.com,2013-03-28 13:34:00,
2013-03-28 09:49:00,33.1,21.9,30.03,SW,225,5.8,-999.0,63,-99.99,,,0.00,Acu-Link.com,2013-03-28 13:49:00,
2013-03-28 10:04:00,32.5,21.7,30.05,WNW,292,6.3,-999.0,64,-99.99,,,0.00,Acu-Link.com,2013-03-28 14:04:00,
2013-03-28 10:20:00,32.7,21.5,30.04,SW,225,8.3,-999.0,63,-99.99,,,0.00,Acu-Link.com,2013-03-28 14:20:00,
2013-03-28 10:35:00,33.6,22.4,30.04,West,270,11.9,-999.0,63,-99.99,,,0.00,Acu-Link.com,2013-03-28 14:35:00,
2013-03-28 10:50:00,35.2,22.3,30.04,West,270,14.0,-999.0,59,-99.99,,,0.00,Acu-Link.com,2013-03-28 14:50:00,
2013-03-28 11:05:00,35.2,22.7,30.05,SSW,202,9.4,-999.0,60,-99.99,,,0.00,Acu-Link.com,2013-03-28 15:05:00,
2013-03-28 11:20:00,35.8,22.5,30.04,West,270,13.5,-999.0,58,-99.99,,,0.00,Acu-Link.com,2013-03-28 15:20:00,
2013-03-28 11:36:00,36.3,22.5,30.04,West,270,7.8,-999.0,57,-99.99,,,0.01,Acu-Link.com,2013-03-28 15:36:00,
2013-03-28 11:51:00,37.2,23.8,30.04,WSW,247,9.9,-999.0,58,-99.99,,,0.02,Acu-Link.com,2013-03-28 15:51:00,
2013-03-28 12:06:00,36.3,22.5,30.04,WSW,247,6.8,-999.0,57,-99.99,,,0.02,Acu-Link.com,2013-03-28 16:06:00,
2013-03-28 12:21:00,38.1,22.9,30.03,West,270,9.9,-999.0,54,-99.99,,,0.03,Acu-Link.com,2013-03-28 16:21:00,
2013-03-28 12:51:00,39.2,24.0,30.02,NW,315,10.4,-999.0,54,-99.99,,,0.06,Acu-Link.com,2013-03-28 16:51:00,
2013-03-28 13:06:00,39.6,24.3,30.02,West,270,14.0,-999.0,54,-99.99,,,0.06,Acu-Link.com,2013-03-28 17:06:00,
2013-03-28 13:21:00,41.2,24.5,30.01,West,270,15.5,-999.0,51,-99.99,,,0.07,Acu-Link.com,2013-03-28 17:21:00,
2013-03-28 13:36:00,41.7,25.4,30.01,NNW,337,13.5,-999.0,52,-99.99,,,0.08,Acu-Link.com,2013-03-28 17:36:00,
2013-03-28 13:52:00,41.5,26.1,30.01,West,270,9.4,-999.0,54,-99.99,,,0.08,Acu-Link.com,2013-03-28 17:52:00,
2013-03-28 14:07:00,41.5,25.2,30.00,West,270,16.6,-999.0,52,-99.99,,,0.08,Acu-Link.com,2013-03-28 18:07:00,
2013-03-28 14:22:00,41.2,24.5,29.99,WSW,247,20.7,-999.0,51,-99.99,,,0.08,Acu-Link.com,2013-03-28 18:22:00,
2013-03-28 14:37:00,42.1,25.3,30.00,WSW,247,10.9,-999.0,51,-99.99,,,0.08,Acu-Link.com,2013-03-28 18:37:00,
2013-03-28 14:52:00,41.5,25.2,30.00,West,270,9.9,-999.0,52,-99.99,,,0.08,Acu-Link.com,2013-03-28 18:52:00,
2013-03-28 15:07:00,42.6,25.8,29.99,West,270,7.3,-999.0,51,-99.99,,,0.08,Acu-Link.com,2013-03-28 19:07:00,
2013-03-28 15:23:00,42.1,25.3,29.99,West,270,10.9,-999.0,51,-99.99,,,0.08,Acu-Link.com,2013-03-28 19:23:00,
2013-03-28 15:38:00,41.9,25.1,29.99,WNW,292,10.9,-999.0,51,-99.99,,,0.08,Acu-Link.com,2013-03-28 19:38:00,
2013-03-28 15:53:00,43.0,25.6,29.98,WSW,247,13.0,-999.0,50,-99.99,,,0.08,Acu-Link.com,2013-03-28 19:53:00,
2013-03-28 16:08:00,41.4,24.6,29.98,West,270,6.3,-999.0,51,-99.99,,,0.08,Acu-Link.com,2013-03-28 20:08:00,
2013-03-28 16:23:00,43.2,24.9,29.97,WSW,247,11.4,-999.0,48,-99.99,,,0.08,Acu-Link.com,2013-03-28 20:23:00,
2013-03-28 16:38:00,43.3,24.9,29.98,WSW,247,11.9,-999.0,48,-99.99,,,0.08,Acu-Link.com,2013-03-28 20:38:00,
2013-03-28 16:53:00,43.9,24.5,29.97,WSW,247,17.1,-999.0,46,-99.99,,,0.08,Acu-Link.com,2013-03-28 20:53:00,
2013-03-28 17:08:00,44.4,25.4,29.97,SW,225,9.4,-999.0,47,-99.99,,,0.08,Acu-Link.com,2013-03-28 21:08:00,
2013-03-28 17:24:00,43.5,24.6,29.98,WSW,247,14.5,-999.0,47,-99.99,,,0.08,Acu-Link.com,2013-03-28 21:24:00,
2013-03-28 17:39:00,44.4,24.4,29.98,West,270,6.3,-999.0,45,-99.99,,,0.08,Acu-Link.com,2013-03-28 21:39:00,
2013-03-28 17:54:00,43.3,23.4,29.99,West,270,4.2,-999.0,45,-99.99,,,0.08,Acu-Link.com,2013-03-28 21:54:00,
2013-03-28 18:09:00,44.1,23.6,29.99,West,270,8.9,-999.0,44,-99.99,,,0.08,Acu-Link.com,2013-03-28 22:09:00,
2013-03-28 18:25:00,43.7,23.8,30.00,SSW,202,5.8,-999.0,45,-99.99,,,0.08,Acu-Link.com,2013-03-28 22:25:00,
2013-03-28 18:40:00,43.7,22.7,30.00,West,270,7.8,-999.0,43,-99.99,,,0.08,Acu-Link.com,2013-03-28 22:40:00,
2013-03-28 18:55:00,42.8,23.5,30.01,West,270,5.3,-999.0,46,-99.99,,,0.08,Acu-Link.com,2013-03-28 22:55:00,
2013-03-28 19:11:00,43.2,23.3,30.02,WSW,247,3.7,-999.0,45,-99.99,,,0.08,Acu-Link.com,2013-03-28 23:11:00,
2013-03-28 19:26:00,41.9,23.2,30.02,ESE,112,4.2,-999.0,47,-99.99,,,0.08,Acu-Link.com,2013-03-28 23:26:00,
2013-03-28 19:56:00,38.5,22.4,30.04,WNW,292,0.0,-999.0,52,-99.99,,,0.08,Acu-Link.com,2013-03-28 23:56:00,
2013-03-28 20:11:00,37.4,22.3,30.04,NNW,337,2.2,-999.0,54,-99.99,,,0.08,Acu-Link.com,2013-03-29 00:11:00,
2013-03-28 20:27:00,36.9,22.3,30.06,WSW,247,2.2,-999.0,55,-99.99,,,0.08,Acu-Link.com,2013-03-29 00:27:00,
2013-03-28 20:42:00,35.6,22.7,30.05,NE,45,2.2,-999.0,59,-99.99,,,0.08,Acu-Link.com,2013-03-29 00:42:00,
2013-03-28 20:57:00,34.3,21.9,30.06,SE,135,1.1,-999.0,60,-99.99,,,0.08,Acu-Link.com,2013-03-29 00:57:00,
2013-03-28 21:13:00,33.6,22.4,30.07,WSW,247,2.7,-999.0,63,-99.99,,,0.08,Acu-Link.com,2013-03-29 01:13:00,
2013-03-28 21:28:00,33.3,22.8,30.07,SW,225,2.7,-999.0,65,-99.99,,,0.08,Acu-Link.com,2013-03-29 01:28:00,
2013-03-28 21:43:00,32.4,22.7,30.07,SSW,202,4.2,-999.0,67,-99.99,,,0.08,Acu-Link.com,2013-03-29 01:43:00,
2013-03-28 21:58:00,31.6,22.3,30.08,WSW,247,1.7,-999.0,68,-99.99,,,0.08,Acu-Link.com,2013-03-29 01:58:00,
2013-03-28 22:14:00,31.1,22.1,30.08,South,180,2.2,-999.0,69,-99.99,,,0.08,Acu-Link.com,2013-03-29 02:14:00,
2013-03-28 22:29:00,30.4,21.8,30.09,West,270,1.7,-999.0,70,-99.99,,,0.08,Acu-Link.com,2013-03-29 02:29:00,
2013-03-28 22:44:00,31.1,22.1,30.09,SSE,157,1.7,-999.0,69,-99.99,,,0.08,Acu-Link.com,2013-03-29 02:44:00,
2013-03-28 22:59:00,29.5,21.9,30.09,SW,225,1.7,-999.0,73,-99.99,,,0.08,Acu-Link.com,2013-03-29 02:59:00,
2013-03-28 23:14:00,29.1,22.2,30.09,SW,225,3.2,-999.0,75,-99.99,,,0.08,Acu-Link.com,2013-03-29 03:14:00,
2013-03-28 23:30:00,28.8,21.9,30.09,SW,225,3.2,-999.0,75,-99.99,,,0.08,Acu-Link.com,2013-03-29 03:30:00,
2013-03-28 23:45:00,28.8,22.2,30.09,SW,225,2.7,-999.0,76,-99.99,,,0.08,Acu-Link.com,2013-03-29 03:45:00,